Chapman, Alabama
Current Conditions -  °F | °C
As of 12:23 AM on Saturday 20 Dec 2014 (Local Time) from KPRN Reporting Station
Moderate Rain Moderate Rain  
Wind Chill: 41°   Ceiling: 2300
Heat Index: 45°   Visibility: 5mi
Dew Point: 43°   Wind: 6mph
Humidity: 93%   Direction: 90°E
Pressure: 30.11"   Gusts: NA
Location:  31.67°N, 86.71°W
Report Text: KPRN 200623Z AUTO 09005KT 5SM RA BR FEW002 BKN023 OVC085 07/06 A3011 RMK AO2 P0002
Loading
Personal Weather Stations






























Interactive Weather Map New forecast layout! Learn more

10-Day Weather Forecast

Advertisements
Track Severe Weather on mobile